createdAt,value
2018-09-23T00:02:28.006Z,12.50
2018-09-23T00:04:56.122Z,12.50
2018-09-23T00:07:24.233Z,12.50
2018-09-23T00:09:52.372Z,12.40
2018-09-23T00:12:20.506Z,12.40
2018-09-23T00:14:48.635Z,12.50
2018-09-23T00:17:16.742Z,12.50
2018-09-23T00:19:44.886Z,12.50
2018-09-23T00:22:13.128Z,12.40
2018-09-23T00:24:41.211Z,12.50
2018-09-23T00:27:09.319Z,12.50
2018-09-23T00:29:42.908Z,12.40
2018-09-23T00:32:11.019Z,12.50
2018-09-23T00:34:39.207Z,12.40
2018-09-23T00:37:07.586Z,12.40
2018-09-23T00:39:35.925Z,12.40
2018-09-23T00:42:04.023Z,12.40
2018-09-23T00:44:32.182Z,12.40
2018-09-23T00:47:00.298Z,12.40
2018-09-23T00:49:28.391Z,12.40
2018-09-23T00:51:56.546Z,12.40
2018-09-23T00:54:24.641Z,12.40
2018-09-23T00:56:52.782Z,12.50
2018-09-23T01:01:55.505Z,12.40
2018-09-23T01:04:23.643Z,12.40
2018-09-23T01:06:51.778Z,12.50
2018-09-23T01:09:19.906Z,12.40
2018-09-23T01:11:48.069Z,12.50
2018-09-23T01:14:16.174Z,12.40
2018-09-23T01:16:44.309Z,12.40
2018-09-23T01:19:12.407Z,12.40
2018-09-23T01:21:40.626Z,12.50
2018-09-23T01:24:08.863Z,12.50
2018-09-23T01:26:37.009Z,12.40
2018-09-23T01:29:05.195Z,12.40
2018-09-23T01:31:33.344Z,12.40
2018-09-23T01:34:01.479Z,12.40
2018-09-23T01:36:29.616Z,12.30
2018-09-23T01:38:57.742Z,12.30
2018-09-23T01:41:25.898Z,12.30
2018-09-23T01:43:54.048Z,12.30
2018-09-23T01:46:22.211Z,12.20
2018-09-23T01:48:50.362Z,12.20
2018-09-23T01:51:18.514Z,12.20
2018-09-23T01:53:46.654Z,12.20
2018-09-23T01:56:14.800Z,12.20
2018-09-23T01:58:42.939Z,12.20
2018-09-23T02:01:11.083Z,12.20
2018-09-23T02:03:39.275Z,12.20
2018-09-23T02:06:07.464Z,12.20
2018-09-23T02:08:35.620Z,12.20
2018-09-23T02:11:03.869Z,12.20
2018-09-23T02:13:32.011Z,12.20
2018-09-23T02:16:00.165Z,12.20
2018-09-23T02:18:28.306Z,12.20
2018-09-23T02:20:56.470Z,12.20
2018-09-23T02:23:24.618Z,12.20
2018-09-23T02:25:52.783Z,12.20
2018-09-23T02:28:21.008Z,12.20
2018-09-23T02:30:49.171Z,12.20
2018-09-23T02:33:17.355Z,12.20
2018-09-23T02:35:45.529Z,12.20
2018-09-23T02:38:13.671Z,12.10
2018-09-23T02:40:41.813Z,12.10
2018-09-23T02:43:09.955Z,12.20
2018-09-23T02:45:38.111Z,12.20
2018-09-23T02:48:06.603Z,12.20
2018-09-23T02:50:34.799Z,12.20
2018-09-23T02:53:02.955Z,12.20
2018-09-23T02:55:31.108Z,12.30
2018-09-23T02:57:59.262Z,12.30
2018-09-23T03:00:27.415Z,12.30
2018-09-23T03:02:55.583Z,12.30
2018-09-23T03:05:23.747Z,12.30
2018-09-23T03:07:51.910Z,12.30
2018-09-23T03:10:20.050Z,12.30
2018-09-23T03:12:48.394Z,12.30
2018-09-23T03:15:16.526Z,12.30
2018-09-23T03:17:44.685Z,12.30
2018-09-23T03:20:12.915Z,12.30
2018-09-23T03:22:41.081Z,12.30
2018-09-23T03:25:09.232Z,12.30
2018-09-23T03:27:37.391Z,12.30
2018-09-23T03:30:05.550Z,12.30
2018-09-23T03:32:33.695Z,12.30
2018-09-23T03:35:01.847Z,12.30
2018-09-23T03:37:30.003Z,12.30
2018-09-23T03:39:58.188Z,12.30
2018-09-23T03:42:26.350Z,12.40
2018-09-23T03:44:54.538Z,12.40
2018-09-23T03:47:22.721Z,12.40
2018-09-23T03:49:51.040Z,12.40
2018-09-23T03:52:19.215Z,12.40
2018-09-23T03:54:47.426Z,12.40
2018-09-23T03:57:15.583Z,12.40
2018-09-23T03:59:43.753Z,12.40
2018-09-23T04:02:11.929Z,12.40
2018-09-23T04:04:40.082Z,12.40
2018-09-23T04:07:08.245Z,12.40
2018-09-23T04:09:36.407Z,12.40
2018-09-23T04:12:04.622Z,12.40
2018-09-23T04:14:32.744Z,12.40
2018-09-23T04:17:00.907Z,12.30
2018-09-23T04:19:29.061Z,12.30
2018-09-23T04:21:57.213Z,12.40
2018-09-23T04:24:25.346Z,12.30
2018-09-23T04:26:53.511Z,12.30
2018-09-23T04:29:21.678Z,12.30
2018-09-23T04:31:49.864Z,12.40
2018-09-23T04:34:18.016Z,12.40
2018-09-23T04:36:46.211Z,12.40
2018-09-23T04:39:14.375Z,12.40
2018-09-23T04:41:42.533Z,12.40
2018-09-23T04:44:10.696Z,12.40
2018-09-23T04:46:38.880Z,12.40
2018-09-23T04:49:07.050Z,12.30
2018-09-23T04:51:35.186Z,12.40
2018-09-23T04:54:03.351Z,12.40
2018-09-23T04:56:31.516Z,12.40
2018-09-23T04:58:59.678Z,12.40
2018-09-23T05:01:27.847Z,12.40
2018-09-23T05:03:56.071Z,12.40
2018-09-23T05:06:24.218Z,12.40
2018-09-23T05:08:52.389Z,12.40
2018-09-23T05:11:20.527Z,12.40
2018-09-23T05:13:48.711Z,12.40
2018-09-23T05:16:16.947Z,12.40
2018-09-23T05:18:45.101Z,12.40
2018-09-23T05:21:13.256Z,12.40
2018-09-23T05:23:41.415Z,12.40
2018-09-23T05:26:09.568Z,12.50
2018-09-23T05:28:37.740Z,12.40
2018-09-23T05:31:05.929Z,12.40
2018-09-23T05:33:34.275Z,12.40
2018-09-23T05:36:02.537Z,12.40
2018-09-23T05:38:30.688Z,12.40
2018-09-23T05:40:58.843Z,12.40
2018-09-23T05:43:27.034Z,12.50
2018-09-23T05:45:55.182Z,12.50
2018-09-23T05:48:23.356Z,12.50
2018-09-23T05:50:51.486Z,12.60
2018-09-23T05:53:19.663Z,12.60
2018-09-23T05:55:47.826Z,12.60
2018-09-23T05:58:16.011Z,12.60
2018-09-23T06:00:46.722Z,12.60
2018-09-23T06:03:14.915Z,12.70
2018-09-23T06:05:43.051Z,12.70
2018-09-23T06:08:11.332Z,12.70
2018-09-23T06:10:39.441Z,12.80
2018-09-23T06:13:07.619Z,12.80
2018-09-23T06:15:35.760Z,12.80
2018-09-23T06:18:03.915Z,12.80
2018-09-23T06:20:37.696Z,12.90
2018-09-23T06:23:05.934Z,12.90
2018-09-23T06:25:34.083Z,12.90
2018-09-23T06:28:02.447Z,12.90
2018-09-23T06:30:30.684Z,12.90
2018-09-23T06:32:58.851Z,12.90
2018-09-23T06:35:27.107Z,12.90
2018-09-23T06:37:55.264Z,13.00
2018-09-23T06:40:23.943Z,13.00
2018-09-23T06:42:52.079Z,13.00
2018-09-23T06:45:20.240Z,13.10
2018-09-23T06:47:48.471Z,13.10
2018-09-23T06:50:16.650Z,13.10
2018-09-23T06:52:44.811Z,13.20
2018-09-23T06:55:12.983Z,13.20
2018-09-23T06:57:41.176Z,13.20
2018-09-23T07:00:09.383Z,13.20
2018-09-23T07:02:37.545Z,13.20
2018-09-23T07:05:05.829Z,13.20
2018-09-23T07:07:33.971Z,13.20
2018-09-23T07:10:02.192Z,13.20
2018-09-23T07:12:30.330Z,13.30
2018-09-23T07:14:58.510Z,13.30
2018-09-23T07:17:26.653Z,13.40
2018-09-23T07:19:54.886Z,13.40
2018-09-23T07:22:23.053Z,13.40
2018-09-23T07:24:51.227Z,13.60
2018-09-23T07:27:19.366Z,13.60
2018-09-23T07:29:47.658Z,13.60
2018-09-23T07:32:15.816Z,13.70
2018-09-23T07:34:43.974Z,13.70
2018-09-23T07:37:12.208Z,13.70
2018-09-23T07:39:40.287Z,13.70
2018-09-23T07:42:08.429Z,13.80
2018-09-23T07:44:36.700Z,13.80
2018-09-23T07:47:04.979Z,13.80
2018-09-23T07:49:33.139Z,13.80
2018-09-23T07:52:01.283Z,13.90
2018-09-23T07:54:29.440Z,13.90
2018-09-23T07:56:57.667Z,14.00
2018-09-23T07:59:25.822Z,14.00
2018-09-23T08:01:53.980Z,14.10
2018-09-23T08:04:22.142Z,14.10
2018-09-23T08:06:50.332Z,14.20
2018-09-23T08:09:18.484Z,14.20
2018-09-23T08:11:46.642Z,14.30
2018-09-23T08:14:15.277Z,14.30
2018-09-23T08:16:42.935Z,14.30
2018-09-23T08:19:11.136Z,14.40
2018-09-23T08:21:39.245Z,14.30
2018-09-23T08:24:07.711Z,14.30
2018-09-23T08:26:36.101Z,14.30
2018-09-23T08:29:04.220Z,14.40
2018-09-23T08:31:32.591Z,14.40
2018-09-23T08:34:00.954Z,14.50
2018-09-23T08:36:29.148Z,14.70
2018-09-23T08:38:57.299Z,14.70
2018-09-23T08:41:25.548Z,14.80
2018-09-23T08:43:53.856Z,14.90
2018-09-23T08:46:22.003Z,14.90
2018-09-23T08:48:50.164Z,15.10
2018-09-23T08:51:18.378Z,15.10
2018-09-23T08:53:46.528Z,15.30
2018-09-23T08:56:14.681Z,15.40
2018-09-23T08:58:42.842Z,15.40
2018-09-23T09:01:11.037Z,15.50
2018-09-23T09:03:39.138Z,15.50
2018-09-23T09:06:07.303Z,15.50
2018-09-23T09:08:35.510Z,15.50
2018-09-23T09:11:03.778Z,15.50
2018-09-23T09:13:31.967Z,15.50
2018-09-23T09:16:00.132Z,15.50
2018-09-23T09:18:28.410Z,15.50
2018-09-23T09:20:56.462Z,15.60
2018-09-23T09:23:24.691Z,15.60
2018-09-23T09:25:52.882Z,15.60
2018-09-23T09:28:21.007Z,15.70
2018-09-23T09:30:49.161Z,15.70
2018-09-23T09:33:17.367Z,15.80
2018-09-23T09:35:45.512Z,15.80
2018-09-23T09:38:13.656Z,15.80
2018-09-23T09:40:42.063Z,15.80
2018-09-23T09:43:10.209Z,15.70
2018-09-23T09:45:38.424Z,15.70
2018-09-23T09:48:06.614Z,15.60
2018-09-23T09:50:34.761Z,15.60
2018-09-23T09:53:02.927Z,15.60
2018-09-23T09:55:31.127Z,15.60
2018-09-23T09:57:59.267Z,15.70
2018-09-23T10:00:34.235Z,15.70
2018-09-23T10:03:03.332Z,15.80
2018-09-23T10:05:31.631Z,15.80
2018-09-23T10:07:59.814Z,15.90
2018-09-23T10:10:28.035Z,15.90
2018-09-23T10:12:56.176Z,15.90
2018-09-23T10:15:24.365Z,16.00
2018-09-23T10:17:52.578Z,16.00
2018-09-23T10:20:20.755Z,16.00
2018-09-23T10:22:49.074Z,15.90
2018-09-23T10:25:17.079Z,15.90
2018-09-23T10:27:45.256Z,15.90
2018-09-23T10:30:13.427Z,15.80
2018-09-23T10:32:41.625Z,15.80
2018-09-23T10:35:16.678Z,15.80
2018-09-23T10:37:44.819Z,15.80
2018-09-23T10:40:13.000Z,15.90
2018-09-23T10:42:41.313Z,16.00
2018-09-23T10:45:09.534Z,16.10
2018-09-23T10:47:37.704Z,16.30
2018-09-23T10:50:05.930Z,16.30
2018-09-23T10:52:34.261Z,16.30
2018-09-23T10:55:02.508Z,16.30
2018-09-23T10:57:30.715Z,16.20
2018-09-23T10:59:58.870Z,16.20
2018-09-23T11:02:27.204Z,16.10
2018-09-23T11:04:55.512Z,16.00
2018-09-23T11:07:23.716Z,16.00
2018-09-23T11:09:51.903Z,15.90
2018-09-23T11:12:22.989Z,15.80
2018-09-23T11:14:51.167Z,15.90
2018-09-23T11:17:19.361Z,15.90
2018-09-23T11:19:47.570Z,15.80
2018-09-23T11:22:15.780Z,15.60
2018-09-23T11:24:43.997Z,15.40
2018-09-23T11:27:12.213Z,15.40
2018-09-23T11:29:40.378Z,15.30
2018-09-23T11:32:08.551Z,15.10
2018-09-23T11:34:36.696Z,15.10
2018-09-23T11:37:04.863Z,15.00
2018-09-23T11:39:33.015Z,15.00
2018-09-23T11:42:01.230Z,14.90
2018-09-23T11:44:29.371Z,14.90
2018-09-23T11:46:57.523Z,14.80
2018-09-23T11:49:25.667Z,14.70
2018-09-23T11:51:53.864Z,14.80
2018-09-23T11:54:22.004Z,14.90
2018-09-23T11:56:50.147Z,14.90
2018-09-23T11:59:18.292Z,14.90
2018-09-23T12:01:46.471Z,14.80
2018-09-23T12:04:14.643Z,14.80
2018-09-23T12:06:42.793Z,14.70
2018-09-23T12:09:12.533Z,14.60
2018-09-23T12:11:40.691Z,14.40
2018-09-23T12:14:09.107Z,14.30
2018-09-23T12:16:37.287Z,14.30
2018-09-23T12:19:05.431Z,14.20
2018-09-23T12:21:33.604Z,14.10
2018-09-23T12:24:01.739Z,14.00
2018-09-23T12:26:29.907Z,13.90
2018-09-23T12:28:58.046Z,13.70
2018-09-23T12:31:26.218Z,13.60
2018-09-23T12:33:54.374Z,13.50
2018-09-23T12:36:22.660Z,13.50
2018-09-23T12:38:50.804Z,13.50
2018-09-23T12:41:19.047Z,13.50
2018-09-23T12:43:47.314Z,13.50
2018-09-23T12:46:15.576Z,13.50
2018-09-23T12:48:43.730Z,13.40
2018-09-23T12:51:11.868Z,13.40
2018-09-23T12:53:40.077Z,13.40
2018-09-23T12:56:08.250Z,13.30
2018-09-23T12:58:37.372Z,13.30
2018-09-23T13:01:05.536Z,13.30
2018-09-23T13:03:33.723Z,13.30
2018-09-23T13:06:01.871Z,13.20
2018-09-23T13:08:30.019Z,13.20
2018-09-23T13:10:58.191Z,13.20
2018-09-23T13:13:26.364Z,13.20
2018-09-23T13:15:54.523Z,13.10
2018-09-23T13:18:22.697Z,13.10
2018-09-23T13:20:50.844Z,13.00
2018-09-23T13:23:19.012Z,12.90
2018-09-23T13:25:47.163Z,12.80
2018-09-23T13:28:15.535Z,12.70
2018-09-23T13:30:43.739Z,12.70
2018-09-23T13:33:11.915Z,12.70
2018-09-23T13:35:40.079Z,12.70
2018-09-23T13:38:08.281Z,12.70
2018-09-23T13:40:36.495Z,12.70
2018-09-23T13:43:04.682Z,12.80
2018-09-23T13:45:32.850Z,12.80
2018-09-23T13:48:01.002Z,12.80
2018-09-23T13:50:29.152Z,12.80
2018-09-23T13:52:57.333Z,12.80
2018-09-23T13:55:25.666Z,12.80
2018-09-23T13:57:53.823Z,12.80
2018-09-23T14:00:21.978Z,12.80
2018-09-23T14:02:50.207Z,12.80
2018-09-23T14:05:18.343Z,12.80
2018-09-23T14:07:46.496Z,12.90
2018-09-23T14:10:14.654Z,13.00
2018-09-23T14:12:42.820Z,13.00
2018-09-23T14:15:11.030Z,13.00
2018-09-23T14:17:39.192Z,13.10
2018-09-23T14:20:07.452Z,13.10
2018-09-23T14:22:35.621Z,13.10
2018-09-23T14:25:03.784Z,13.10
2018-09-23T14:27:31.942Z,13.10
2018-09-23T14:30:00.358Z,13.10
2018-09-23T14:32:28.716Z,13.10
2018-09-23T14:34:56.858Z,13.10
2018-09-23T14:37:25.004Z,13.10
2018-09-23T14:39:53.174Z,13.00
2018-09-23T14:42:21.410Z,13.00
2018-09-23T14:44:49.531Z,13.00
2018-09-23T14:47:17.731Z,13.00
2018-09-23T14:49:45.990Z,13.00
2018-09-23T14:52:14.196Z,12.90
2018-09-23T14:54:42.643Z,12.90
2018-09-23T14:57:10.599Z,12.90
2018-09-23T14:59:38.792Z,12.90
2018-09-23T15:02:07.040Z,12.80
2018-09-23T15:04:35.214Z,12.80
2018-09-23T15:07:03.434Z,12.80
2018-09-23T15:09:31.612Z,12.70
2018-09-23T15:11:59.782Z,12.60
2018-09-23T15:14:27.941Z,12.50
2018-09-23T15:16:56.150Z,12.40
2018-09-23T15:19:24.317Z,12.30
2018-09-23T15:21:52.534Z,12.20
2018-09-23T15:24:20.641Z,12.20
2018-09-23T15:26:48.798Z,12.10
2018-09-23T15:29:16.991Z,12.10
2018-09-23T15:31:45.151Z,12.00
2018-09-23T15:34:13.307Z,12.00
2018-09-23T15:36:41.482Z,12.00
2018-09-23T15:39:09.632Z,11.90
2018-09-23T15:41:38.434Z,12.00
2018-09-23T15:44:06.692Z,12.00
2018-09-23T15:46:34.861Z,11.90
2018-09-23T15:49:03.006Z,11.90
2018-09-23T15:51:31.163Z,11.90
2018-09-23T15:53:59.338Z,11.90
2018-09-23T15:56:27.508Z,11.80
2018-09-23T15:58:55.747Z,11.80
2018-09-23T16:01:23.922Z,11.80
2018-09-23T16:03:52.150Z,11.80
2018-09-23T16:06:20.311Z,11.80
2018-09-23T16:08:48.463Z,11.80
2018-09-23T16:11:17.571Z,11.70
2018-09-23T16:13:45.764Z,11.70
2018-09-23T16:16:13.911Z,11.80
2018-09-23T16:18:42.253Z,11.80
2018-09-23T16:21:10.311Z,11.80
2018-09-23T16:23:38.479Z,11.80
2018-09-23T16:26:06.664Z,11.70
2018-09-23T16:28:34.784Z,11.70
2018-09-23T16:31:02.946Z,11.70
2018-09-23T16:33:31.206Z,11.70
2018-09-23T16:35:59.426Z,11.70
2018-09-23T16:38:27.616Z,11.60
2018-09-23T16:40:55.850Z,11.60
2018-09-23T16:43:24.099Z,11.60
2018-09-23T16:45:52.383Z,11.50
2018-09-23T16:48:20.605Z,11.60
2018-09-23T16:50:48.759Z,11.50
2018-09-23T16:53:16.921Z,11.50
2018-09-23T16:55:45.085Z,11.60
2018-09-23T16:58:13.327Z,11.50
2018-09-23T17:00:41.677Z,11.50
2018-09-23T17:03:09.719Z,11.40
2018-09-23T17:05:37.898Z,11.40
2018-09-23T17:08:06.167Z,11.40
2018-09-23T17:10:34.310Z,11.30
2018-09-23T17:13:02.503Z,11.20
2018-09-23T17:15:30.651Z,11.20
2018-09-23T17:17:58.845Z,11.00
2018-09-23T17:20:27.053Z,10.90
2018-09-23T17:22:55.206Z,10.90
2018-09-23T17:25:23.598Z,10.80
2018-09-23T17:27:53.390Z,10.80
2018-09-23T17:30:21.588Z,10.70
2018-09-23T17:32:49.829Z,10.70
2018-09-23T17:35:17.995Z,10.60
2018-09-23T17:37:46.144Z,10.50
2018-09-23T17:40:14.347Z,10.50
2018-09-23T17:42:42.502Z,10.50
2018-09-23T17:45:10.656Z,10.50
2018-09-23T17:47:38.839Z,10.60
2018-09-23T17:50:08.031Z,10.60
2018-09-23T17:52:36.182Z,10.60
2018-09-23T17:55:04.330Z,10.60
2018-09-23T17:57:32.600Z,10.50
2018-09-23T18:00:00.753Z,10.50
2018-09-23T18:02:29.675Z,10.40
2018-09-23T18:04:57.837Z,10.30
2018-09-23T18:07:26.218Z,10.30
2018-09-23T18:09:54.401Z,10.20
2018-09-23T18:12:22.576Z,10.20
2018-09-23T18:14:50.854Z,10.20
2018-09-23T18:17:19.033Z,10.20
2018-09-23T18:19:47.279Z,10.10
2018-09-23T18:22:15.514Z,10.20
2018-09-23T18:24:43.767Z,10.10
2018-09-23T18:27:12.273Z,10.10
2018-09-23T18:29:40.588Z,10.10
2018-09-23T18:32:08.815Z,10.10
2018-09-23T18:34:37.003Z,10.10
2018-09-23T18:37:05.229Z,10.10
2018-09-23T18:39:33.359Z,10.10
2018-09-23T18:42:01.544Z,10.00
2018-09-23T18:44:29.722Z,10.00
2018-09-23T18:46:57.987Z,10.00
2018-09-23T18:49:26.478Z,10.00
2018-09-23T18:51:54.771Z,10.00
2018-09-23T18:54:28.455Z,10.00
2018-09-23T18:56:56.642Z,10.00
2018-09-23T18:59:25.230Z,10.00
2018-09-23T19:01:53.462Z,10.00
2018-09-23T19:04:21.688Z,10.00
2018-09-23T19:06:49.842Z,10.00
2018-09-23T19:09:18.036Z,10.10
2018-09-23T19:11:46.193Z,10.20
2018-09-23T19:14:14.343Z,10.20
2018-09-23T19:16:42.494Z,10.30
2018-09-23T19:19:10.637Z,10.30
2018-09-23T19:21:39.526Z,10.30
2018-09-23T19:24:07.696Z,10.30
2018-09-23T19:26:35.839Z,10.20
2018-09-23T19:29:03.979Z,10.30
2018-09-23T19:31:32.136Z,10.20
2018-09-23T19:34:00.282Z,10.20
2018-09-23T19:36:28.427Z,10.20
2018-09-23T19:38:56.599Z,10.10
2018-09-23T19:41:24.796Z,10.10
2018-09-23T19:43:52.975Z,10.20
2018-09-23T19:46:21.153Z,10.10
2018-09-23T19:48:49.333Z,10.20
2018-09-23T19:51:17.486Z,10.20
2018-09-23T19:53:45.634Z,10.20
2018-09-23T19:56:13.792Z,10.30
2018-09-23T19:58:41.956Z,10.30
2018-09-23T20:01:10.123Z,10.30
2018-09-23T20:03:38.308Z,10.20
2018-09-23T20:06:06.670Z,10.20
2018-09-23T20:08:34.838Z,10.20
2018-09-23T20:11:02.988Z,10.20
2018-09-23T20:13:31.156Z,10.20
2018-09-23T20:15:59.317Z,10.20
2018-09-23T20:18:27.553Z,10.30
2018-09-23T20:20:55.706Z,10.30
2018-09-23T20:23:23.867Z,10.30
2018-09-23T20:25:52.022Z,10.30
2018-09-23T20:28:20.289Z,10.30
2018-09-23T20:30:48.469Z,10.30
2018-09-23T20:33:16.618Z,10.30
2018-09-23T20:35:44.853Z,10.20
2018-09-23T20:38:12.980Z,10.20
2018-09-23T20:40:41.134Z,10.20
2018-09-23T20:43:09.331Z,10.20
2018-09-23T20:45:37.487Z,10.10
2018-09-23T20:48:05.671Z,10.10
2018-09-23T20:50:33.814Z,10.10
2018-09-23T20:53:14.007Z,10.10
2018-09-23T20:55:42.187Z,10.10
2018-09-23T20:58:10.406Z,10.10
2018-09-23T21:00:38.560Z,10.10
2018-09-23T21:03:06.956Z,10.10
2018-09-23T21:05:35.102Z,10.10
2018-09-23T21:08:03.260Z,10.10
2018-09-23T21:10:31.436Z,10.10
2018-09-23T21:12:59.598Z,10.20
2018-09-23T21:15:27.752Z,10.10
2018-09-23T21:17:55.924Z,10.20
2018-09-23T21:20:24.127Z,10.20
2018-09-23T21:22:52.315Z,10.20
2018-09-23T21:25:20.475Z,10.20
2018-09-23T21:27:48.656Z,10.20
2018-09-23T21:30:16.811Z,10.20
2018-09-23T21:32:44.985Z,10.20
2018-09-23T21:35:13.143Z,10.20
2018-09-23T21:37:41.463Z,10.20
2018-09-23T21:40:09.679Z,10.20
2018-09-23T21:42:37.841Z,10.20
2018-09-23T21:45:06.171Z,10.20
2018-09-23T21:47:34.369Z,10.20
2018-09-23T21:50:02.571Z,10.20
2018-09-23T21:52:30.722Z,10.20
2018-09-23T21:54:58.875Z,10.20
2018-09-23T21:57:27.055Z,10.20
2018-09-23T21:59:55.268Z,10.10
2018-09-23T22:02:23.424Z,10.10
2018-09-23T22:04:51.584Z,10.10
2018-09-23T22:07:19.747Z,10.10
2018-09-23T22:09:47.927Z,10.10
2018-09-23T22:12:16.075Z,10.10
2018-09-23T22:14:44.247Z,10.20
2018-09-23T22:17:12.431Z,10.20
2018-09-23T22:19:40.612Z,10.20
2018-09-23T22:22:08.784Z,10.20
2018-09-23T22:24:36.948Z,10.20
2018-09-23T22:27:05.103Z,10.20
2018-09-23T22:29:33.287Z,10.20
2018-09-23T22:32:01.467Z,10.10
2018-09-23T22:34:29.631Z,10.10
2018-09-23T22:36:57.808Z,10.10
2018-09-23T22:39:25.975Z,10.10
2018-09-23T22:41:54.155Z,10.10
2018-09-23T22:44:22.307Z,10.10
2018-09-23T22:46:50.483Z,10.10
2018-09-23T22:49:18.658Z,10.20
2018-09-23T22:51:46.853Z,10.20
2018-09-23T22:54:15.017Z,10.20
2018-09-23T22:56:43.174Z,10.20
2018-09-23T22:59:11.350Z,10.20
2018-09-23T23:01:39.762Z,10.20
2018-09-23T23:04:07.922Z,10.30
2018-09-23T23:06:36.071Z,10.20
2018-09-23T23:09:05.892Z,10.20
2018-09-23T23:11:34.044Z,10.20
2018-09-23T23:14:02.188Z,10.20
2018-09-23T23:16:30.335Z,10.20
2018-09-23T23:18:58.576Z,10.20
2018-09-23T23:21:26.740Z,10.20
2018-09-23T23:23:54.895Z,10.30
2018-09-23T23:26:23.088Z,10.20
2018-09-23T23:28:51.226Z,10.20
2018-09-23T23:31:19.396Z,10.20
2018-09-23T23:33:47.599Z,10.30
2018-09-23T23:36:15.742Z,10.30
2018-09-23T23:38:43.920Z,10.30
2018-09-23T23:41:12.079Z,10.30
2018-09-23T23:43:40.230Z,10.20
2018-09-23T23:46:08.562Z,10.20
2018-09-23T23:48:36.731Z,10.20
2018-09-23T23:51:05.169Z,10.20
2018-09-23T23:53:33.335Z,10.20
2018-09-23T23:56:01.511Z,10.20
2018-09-23T23:58:29.675Z,10.20
